createdAt,value
2022-11-28T00:01:30.989Z,5.23
2022-11-28T00:03:57.842Z,5.16
2022-11-28T00:06:24.573Z,5.08
2022-11-28T00:08:51.377Z,5.33
2022-11-28T00:11:18.106Z,5.39
2022-11-28T00:13:45.079Z,5.14
2022-11-28T00:16:16.799Z,5.27
2022-11-28T00:18:44.069Z,5.21
2022-11-28T00:21:12.654Z,5.11
2022-11-28T00:23:39.972Z,5.00
2022-11-28T00:26:19.688Z,5.15
2022-11-28T00:28:46.468Z,5.42
2022-11-28T00:31:21.834Z,5.36
2022-11-28T00:33:48.454Z,5.54
2022-11-28T00:36:15.366Z,5.49
2022-11-28T00:38:42.252Z,5.53
2022-11-28T00:41:11.924Z,5.39
2022-11-28T00:43:38.329Z,5.26
2022-11-28T00:46:05.007Z,5.33
2022-11-28T00:48:35.556Z,5.28
2022-11-28T00:51:06.173Z,5.11
2022-11-28T00:53:32.664Z,5.01
2022-11-28T00:55:59.099Z,5.04
2022-11-28T00:58:25.515Z,5.21
2022-11-28T01:00:51.993Z,5.31
2022-11-28T01:03:18.482Z,5.39
2022-11-28T01:05:45.522Z,5.30
2022-11-28T01:08:11.932Z,5.21
2022-11-28T01:10:44.118Z,5.20
2022-11-28T01:13:11.184Z,5.37
2022-11-28T01:15:41.565Z,5.20
2022-11-28T01:18:08.203Z,5.25
2022-11-28T01:20:34.838Z,5.34
2022-11-28T01:23:01.622Z,5.42
2022-11-28T01:25:28.178Z,5.53
2022-11-28T01:27:54.596Z,5.55
2022-11-28T01:30:21.012Z,5.34
2022-11-28T01:32:47.417Z,5.39
2022-11-28T01:35:13.841Z,5.51
2022-11-28T01:37:40.257Z,5.38
2022-11-28T01:40:07.473Z,5.34
2022-11-28T01:42:34.186Z,5.42
2022-11-28T01:45:32.722Z,5.48
2022-11-28T01:48:02.734Z,5.54
2022-11-28T01:50:33.016Z,5.45
2022-11-28T01:53:04.194Z,5.30
2022-11-28T01:55:35.329Z,5.27
2022-11-28T01:58:01.789Z,5.61
2022-11-28T02:00:28.259Z,5.61
2022-11-28T02:03:05.173Z,5.56
2022-11-28T02:05:31.613Z,5.45
2022-11-28T02:07:58.133Z,5.35
2022-11-28T02:10:35.638Z,5.24
2022-11-28T02:13:07.993Z,5.13
2022-11-28T02:16:05.436Z,5.14
2022-11-28T02:19:02.955Z,5.40
2022-11-28T02:21:54.994Z,5.44
2022-11-28T02:25:07.022Z,5.45
2022-11-28T02:27:58.218Z,5.28
2022-11-28T02:30:52.735Z,5.28
2022-11-28T02:33:29.685Z,5.20
2022-11-28T02:36:05.678Z,5.47
2022-11-28T02:39:14.340Z,5.31
2022-11-28T02:41:53.933Z,5.25
2022-11-28T02:44:32.090Z,5.14
2022-11-28T02:47:20.939Z,5.09
2022-11-28T02:49:53.827Z,4.95
2022-11-28T02:52:44.499Z,4.94
2022-11-28T02:55:12.693Z,4.92
2022-11-28T02:57:43.377Z,4.87
2022-11-28T03:00:31.687Z,4.96
2022-11-28T03:03:16.929Z,5.17
2022-11-28T03:06:22.560Z,5.19
2022-11-28T03:09:09.180Z,5.21
2022-11-28T03:11:45.261Z,4.93
2022-11-28T03:14:50.914Z,4.94
2022-11-28T03:17:47.418Z,4.73
2022-11-28T03:20:38.821Z,4.64
2022-11-28T03:23:32.329Z,4.95
2022-11-28T03:26:01.722Z,4.81
2022-11-28T03:28:43.606Z,4.76
2022-11-28T03:31:22.730Z,4.76
2022-11-28T03:33:55.134Z,4.71
2022-11-28T03:36:27.554Z,4.73
2022-11-28T03:39:01.800Z,4.73
2022-11-28T03:41:36.787Z,4.72
2022-11-28T03:44:07.671Z,4.85
2022-11-28T03:46:41.687Z,4.83
2022-11-28T03:49:10.370Z,4.76
2022-11-28T03:51:44.512Z,4.84
2022-11-28T03:54:13.283Z,4.79
2022-11-28T03:56:45.300Z,4.83
2022-11-28T03:59:30.859Z,4.89
2022-11-28T04:02:09.351Z,4.83
2022-11-28T04:04:50.795Z,5.00
2022-11-28T04:07:39.892Z,4.78
2022-11-28T04:10:31.114Z,4.85
2022-11-28T04:13:31.540Z,4.78
2022-11-28T04:16:19.072Z,4.80
2022-11-28T04:19:03.155Z,5.09
2022-11-28T04:21:55.445Z,5.15
2022-11-28T04:24:27.324Z,5.07
2022-11-28T04:27:17.663Z,4.92
2022-11-28T04:29:53.010Z,4.80
2022-11-28T04:32:21.247Z,4.89
2022-11-28T04:34:53.621Z,4.95
2022-11-28T04:37:23.305Z,4.83
2022-11-28T04:39:51.220Z,4.75
2022-11-28T04:42:32.330Z,4.83
2022-11-28T04:45:11.804Z,4.79
2022-11-28T04:47:38.535Z,4.84
2022-11-28T04:50:05.975Z,4.84
2022-11-28T04:52:44.861Z,4.92
2022-11-28T04:55:26.916Z,5.00
2022-11-28T04:58:02.610Z,5.01
2022-11-28T05:00:29.318Z,4.96
2022-11-28T05:02:56.810Z,4.88
2022-11-28T05:05:26.125Z,5.06
2022-11-28T05:07:53.046Z,5.08
2022-11-28T05:10:20.054Z,5.34
2022-11-28T05:12:46.500Z,5.42
2022-11-28T05:15:12.965Z,5.19
2022-11-28T05:17:42.364Z,5.13
2022-11-28T05:20:09.677Z,5.25
2022-11-28T05:22:36.111Z,5.27
2022-11-28T05:25:02.595Z,5.20
2022-11-28T05:27:29.276Z,4.99
2022-11-28T05:29:55.705Z,4.93
2022-11-28T05:32:22.103Z,4.93
2022-11-28T05:34:48.558Z,5.04
2022-11-28T05:37:15.687Z,4.98
2022-11-28T05:39:42.379Z,5.13
2022-11-28T05:42:09.175Z,5.29
2022-11-28T05:44:37.095Z,5.35
2022-11-28T05:47:04.041Z,5.35
2022-11-28T05:49:30.802Z,5.31
2022-11-28T05:51:57.658Z,5.60
2022-11-28T05:54:24.349Z,5.35
2022-11-28T05:56:51.213Z,5.47
2022-11-28T05:59:18.058Z,5.54
2022-11-28T06:01:44.582Z,5.38
2022-11-28T06:04:11.225Z,5.40
2022-11-28T06:06:37.820Z,5.50
2022-11-28T06:09:06.025Z,5.46
2022-11-28T06:11:34.125Z,5.48
2022-11-28T06:14:01.187Z,5.37
2022-11-28T06:16:29.797Z,5.32
2022-11-28T06:18:58.722Z,5.44
2022-11-28T06:21:26.008Z,5.50
2022-11-28T06:23:53.102Z,5.39
2022-11-28T06:26:22.643Z,5.33
2022-11-28T06:28:49.681Z,5.39
2022-11-28T06:31:19.057Z,5.49
2022-11-28T06:33:45.905Z,5.50
2022-11-28T06:36:14.006Z,5.55
2022-11-28T06:38:40.920Z,5.41
2022-11-28T06:41:10.562Z,5.46
2022-11-28T06:43:37.409Z,5.49
2022-11-28T06:46:04.274Z,5.50
2022-11-28T06:48:30.758Z,5.39
2022-11-28T06:51:05.469Z,5.30
2022-11-28T06:53:32.595Z,5.22
2022-11-28T06:56:05.705Z,5.47
2022-11-28T06:58:32.124Z,5.40
2022-11-28T07:01:05.895Z,5.32
2022-11-28T07:03:32.386Z,5.38
2022-11-28T07:06:01.386Z,5.27
2022-11-28T07:08:27.868Z,5.40
2022-11-28T07:10:54.401Z,5.25
2022-11-28T07:13:20.802Z,5.29
2022-11-28T07:15:51.578Z,5.20
2022-11-28T07:18:18.160Z,5.16
2022-11-28T07:20:44.601Z,5.36
2022-11-28T07:23:11.177Z,5.21
2022-11-28T07:25:37.597Z,5.15
2022-11-28T07:28:04.173Z,5.39
2022-11-28T07:30:31.001Z,5.44
2022-11-28T07:32:57.413Z,5.28
2022-11-28T07:35:24.389Z,5.23
2022-11-28T07:37:50.854Z,5.22
2022-11-28T07:40:19.642Z,5.29
2022-11-28T07:42:46.669Z,5.12
2022-11-28T07:45:13.110Z,5.05
2022-11-28T07:47:39.494Z,5.36
2022-11-28T07:50:06.649Z,5.21
2022-11-28T07:52:33.164Z,5.17
2022-11-28T07:54:59.577Z,4.95
2022-11-28T07:57:26.038Z,5.18
2022-11-28T07:59:52.506Z,5.13
2022-11-28T08:02:18.979Z,5.21
2022-11-28T08:04:50.443Z,5.25
2022-11-28T08:07:19.710Z,5.36
2022-11-28T08:09:46.278Z,5.25
2022-11-28T08:12:12.693Z,5.41
2022-11-28T08:14:39.114Z,5.34
2022-11-28T08:17:05.594Z,5.40
2022-11-28T08:19:35.396Z,5.45
2022-11-28T08:22:02.634Z,5.64
2022-11-28T08:24:29.058Z,5.53
2022-11-28T08:26:55.556Z,5.37
2022-11-28T08:29:22.108Z,5.34
2022-11-28T08:31:48.589Z,5.55
2022-11-28T08:34:15.113Z,5.44
2022-11-28T08:36:43.306Z,5.59
2022-11-28T08:39:26.785Z,5.61
2022-11-28T08:41:57.148Z,5.45
2022-11-28T08:44:23.776Z,5.50
2022-11-28T08:46:50.232Z,5.71
2022-11-28T08:49:16.770Z,5.46
2022-11-28T08:51:43.272Z,5.49
2022-11-28T08:54:09.701Z,5.51
2022-11-28T08:56:36.169Z,5.40
2022-11-28T08:59:02.976Z,5.45
2022-11-28T09:01:29.466Z,5.44
2022-11-28T09:03:56.857Z,5.49
2022-11-28T09:06:23.966Z,5.42
2022-11-28T09:08:51.404Z,5.56
2022-11-28T09:11:21.126Z,5.52
2022-11-28T09:13:48.231Z,5.53
2022-11-28T09:16:15.887Z,5.57
2022-11-28T09:18:42.873Z,5.72
2022-11-28T09:21:11.829Z,5.69
2022-11-28T09:23:40.917Z,5.76
2022-11-28T09:26:12.378Z,5.65
2022-11-28T09:28:39.180Z,5.62
2022-11-28T09:31:06.758Z,5.69
2022-11-28T09:33:34.120Z,5.76
2022-11-28T09:36:05.706Z,5.60
2022-11-28T09:38:32.150Z,5.72
2022-11-28T09:40:58.857Z,5.81
2022-11-28T09:43:36.378Z,5.98
2022-11-28T09:46:09.886Z,5.75
2022-11-28T09:48:44.576Z,5.66
2022-11-28T09:51:33.906Z,5.68
2022-11-28T09:54:21.099Z,5.62
2022-11-28T09:56:49.152Z,5.60
2022-11-28T09:59:27.247Z,5.73
2022-11-28T10:02:34.851Z,5.68
2022-11-28T10:05:04.272Z,5.68
2022-11-28T10:08:24.258Z,5.75
2022-11-28T10:11:01.821Z,5.66
2022-11-28T10:14:06.562Z,5.54
2022-11-28T10:16:49.791Z,5.61
2022-11-28T10:19:53.320Z,5.59
2022-11-28T10:22:20.230Z,5.63
2022-11-28T10:24:59.686Z,5.68
2022-11-28T10:27:35.743Z,5.66
2022-11-28T10:30:11.042Z,5.50
2022-11-28T10:32:42.217Z,5.62
2022-11-28T10:35:28.756Z,5.48
2022-11-28T10:37:55.443Z,5.54
2022-11-28T10:40:28.195Z,5.45
2022-11-28T10:43:19.645Z,5.46
2022-11-28T10:46:04.642Z,5.67
2022-11-28T10:48:40.999Z,5.73
2022-11-28T10:51:35.270Z,5.71
2022-11-28T10:54:04.758Z,5.71
2022-11-28T10:56:38.536Z,5.47
2022-11-28T10:59:27.878Z,5.62
2022-11-28T11:01:56.161Z,5.77
2022-11-28T11:04:23.837Z,5.87
2022-11-28T11:07:16.134Z,5.90
2022-11-28T11:09:45.296Z,5.93
2022-11-28T11:12:21.513Z,5.70
2022-11-28T11:14:47.962Z,5.84
2022-11-28T11:17:29.038Z,5.62
2022-11-28T11:19:59.145Z,5.70
2022-11-28T11:22:31.911Z,5.60
2022-11-28T11:25:15.914Z,5.93
2022-11-28T11:27:51.219Z,5.93
2022-11-28T11:30:27.259Z,5.78
2022-11-28T11:32:55.942Z,5.70
2022-11-28T11:35:31.693Z,5.69
2022-11-28T11:38:14.878Z,5.70
2022-11-28T11:40:41.386Z,5.49
2022-11-28T11:43:25.942Z,5.74
2022-11-28T11:46:13.224Z,5.44
2022-11-28T11:48:42.245Z,5.35
2022-11-28T11:51:22.371Z,5.40
2022-11-28T11:53:59.313Z,5.29
2022-11-28T11:56:27.817Z,5.44
2022-11-28T11:58:55.941Z,5.37
2022-11-28T12:01:23.000Z,5.38
2022-11-28T12:03:56.786Z,5.37
2022-11-28T12:06:29.056Z,5.27
2022-11-28T12:09:11.587Z,5.45
2022-11-28T12:11:47.296Z,5.53
2022-11-28T12:14:26.864Z,5.45
2022-11-28T12:17:40.415Z,5.42
2022-11-28T12:20:28.190Z,5.44
2022-11-28T12:23:02.221Z,5.45
2022-11-28T12:25:33.575Z,5.31
2022-11-28T12:28:18.335Z,5.58
2022-11-28T12:31:05.324Z,5.26
2022-11-28T12:33:42.829Z,5.34
2022-11-28T12:36:19.158Z,5.33
2022-11-28T12:39:02.940Z,5.26
2022-11-28T12:42:09.472Z,5.27
2022-11-28T12:45:11.269Z,5.43
2022-11-28T12:48:21.908Z,5.23
2022-11-28T12:51:17.223Z,5.17
2022-11-28T12:53:46.610Z,5.12
2022-11-28T12:56:45.305Z,5.23
2022-11-28T12:59:29.367Z,5.32
2022-11-28T13:01:56.044Z,5.36
2022-11-28T13:04:37.362Z,5.14
2022-11-28T13:07:42.740Z,4.99
2022-11-28T13:10:38.416Z,5.28
2022-11-28T13:13:19.751Z,4.96
2022-11-28T13:16:07.338Z,5.02
2022-11-28T13:18:47.911Z,5.02
2022-11-28T13:21:33.645Z,4.88
2022-11-28T13:24:07.501Z,4.90
2022-11-28T13:27:00.895Z,4.91
2022-11-28T13:29:36.675Z,4.72
2022-11-28T13:32:15.098Z,4.55
2022-11-28T13:34:41.995Z,4.64
2022-11-28T13:40:42.621Z,4.57
2022-11-28T13:43:25.473Z,4.48
2022-11-28T13:45:52.548Z,4.38
2022-11-28T13:49:06.033Z,4.58
2022-11-28T13:51:30.498Z,4.42
2022-11-28T13:54:17.043Z,4.40
2022-11-28T13:56:45.796Z,4.50
2022-11-28T13:59:20.983Z,4.57
2022-11-28T14:01:57.947Z,4.46
2022-11-28T14:04:26.618Z,4.53
2022-11-28T14:07:01.642Z,4.41
2022-11-28T14:09:49.686Z,4.30
2022-11-28T14:12:25.055Z,4.21
2022-11-28T14:15:19.332Z,4.27
2022-11-28T14:17:59.379Z,4.29
2022-11-28T14:20:50.739Z,4.40
2022-11-28T14:23:46.520Z,4.31
2022-11-28T14:26:42.758Z,4.31
2022-11-28T14:29:26.815Z,4.30
2022-11-28T14:32:21.579Z,4.30
2022-11-28T14:34:48.714Z,4.35
2022-11-28T14:37:27.202Z,4.17
2022-11-28T14:39:56.243Z,4.11
2022-11-28T14:42:51.964Z,4.12
2022-11-28T14:45:30.447Z,4.17
2022-11-28T14:48:27.442Z,4.20
2022-11-28T14:51:01.005Z,4.37
2022-11-28T14:53:44.134Z,4.33
2022-11-28T14:56:13.656Z,4.29
2022-11-28T14:58:47.177Z,4.16
2022-11-28T15:01:20.603Z,4.19
2022-11-28T15:04:22.515Z,4.24
2022-11-28T15:06:50.265Z,4.26
2022-11-28T15:09:19.754Z,4.21
2022-11-28T15:12:27.307Z,4.33
2022-11-28T15:14:57.725Z,4.26
2022-11-28T15:17:30.680Z,4.36
2022-11-28T15:20:01.530Z,4.14
2022-11-28T15:22:43.030Z,4.16
2022-11-28T15:25:24.317Z,4.21
2022-11-28T15:27:51.428Z,4.33
2022-11-28T15:30:20.191Z,4.27
2022-11-28T15:32:47.236Z,4.29
2022-11-28T15:35:16.198Z,4.29
2022-11-28T15:37:54.924Z,4.16
2022-11-28T15:40:25.511Z,4.25
2022-11-28T15:42:52.413Z,4.29
2022-11-28T15:45:25.574Z,4.36
2022-11-28T15:47:53.478Z,4.12
2022-11-28T15:50:25.576Z,4.17
2022-11-28T15:53:04.270Z,4.26
2022-11-28T15:55:33.582Z,4.09
2022-11-28T15:58:19.079Z,4.28
2022-11-28T16:00:52.083Z,4.10
2022-11-28T16:03:24.438Z,3.88
2022-11-28T16:05:54.585Z,4.02
2022-11-28T16:08:28.418Z,3.88
2022-11-28T16:10:55.743Z,4.02
2022-11-28T16:13:24.936Z,3.94
2022-11-28T16:15:56.016Z,4.01
2022-11-28T16:18:25.423Z,4.05
2022-11-28T16:20:52.097Z,4.06
2022-11-28T16:23:32.915Z,4.01
2022-11-28T16:26:01.708Z,4.19
2022-11-28T16:28:40.659Z,4.36
2022-11-28T16:31:12.261Z,4.31
2022-11-28T16:33:45.851Z,4.06
2022-11-28T16:36:23.356Z,4.22
2022-11-28T16:38:52.819Z,4.27
2022-11-28T16:41:27.702Z,4.24
2022-11-28T16:44:00.462Z,4.04
2022-11-28T16:46:35.899Z,4.00
2022-11-28T16:49:03.434Z,4.10
2022-11-28T16:51:33.018Z,4.05
2022-11-28T16:54:20.450Z,4.01
2022-11-28T16:56:47.369Z,4.04
2022-11-28T16:59:19.451Z,4.10
2022-11-28T17:01:48.492Z,4.09
2022-11-28T17:04:29.205Z,4.14
2022-11-28T17:06:58.138Z,3.98
2022-11-28T17:09:24.628Z,3.95
2022-11-28T17:12:07.407Z,4.05
2022-11-28T17:14:34.253Z,3.91
2022-11-28T17:17:03.506Z,4.04
2022-11-28T17:19:30.000Z,4.03
2022-11-28T17:21:58.814Z,4.06
2022-11-28T17:24:29.233Z,4.17
2022-11-28T17:26:55.675Z,4.02
2022-11-28T17:29:22.635Z,3.95
2022-11-28T17:31:50.150Z,3.86
2022-11-28T17:34:23.210Z,3.91
2022-11-28T17:36:50.165Z,3.89
2022-11-28T17:39:17.807Z,3.90
2022-11-28T17:41:44.731Z,3.86
2022-11-28T17:44:24.199Z,3.87
2022-11-28T17:46:52.735Z,3.78
2022-11-28T17:49:19.835Z,3.91
2022-11-28T17:51:46.834Z,3.83
2022-11-28T17:54:19.117Z,3.84
2022-11-28T17:56:46.720Z,4.13
2022-11-28T17:59:17.640Z,4.16
2022-11-28T18:01:47.870Z,4.11
2022-11-28T18:04:14.781Z,3.90
2022-11-28T18:06:45.842Z,3.94
2022-11-28T18:09:13.977Z,3.94
2022-11-28T18:11:42.900Z,3.91
2022-11-28T18:14:10.385Z,3.83
2022-11-28T18:16:38.143Z,4.12
2022-11-28T18:19:04.590Z,3.94
2022-11-28T18:21:31.943Z,3.91
2022-11-28T18:23:58.565Z,3.82
2022-11-28T18:26:26.122Z,4.00
2022-11-28T18:28:54.417Z,3.79
2022-11-28T18:31:27.020Z,3.82
2022-11-28T18:34:01.479Z,3.74
2022-11-28T18:36:30.512Z,3.70
2022-11-28T18:39:04.358Z,3.67
2022-11-28T18:41:31.212Z,3.67
2022-11-28T18:43:59.574Z,3.62
2022-11-28T18:46:34.975Z,3.68
2022-11-28T18:49:06.773Z,3.67
2022-11-28T18:51:34.874Z,3.56
2022-11-28T18:54:05.638Z,3.55
2022-11-28T18:56:32.665Z,3.55
2022-11-28T18:58:59.488Z,3.57
2022-11-28T19:01:30.027Z,3.56
2022-11-28T19:04:02.102Z,3.57
2022-11-28T19:06:29.581Z,3.60
2022-11-28T19:08:58.545Z,3.73
2022-11-28T19:11:25.953Z,3.76
2022-11-28T19:13:53.458Z,3.67
2022-11-28T19:16:26.304Z,3.70
2022-11-28T19:18:53.344Z,3.64
2022-11-28T19:21:22.419Z,3.64
2022-11-28T19:23:49.690Z,3.62
2022-11-28T19:26:21.798Z,3.67
2022-11-28T19:28:49.114Z,3.58
2022-11-28T19:31:21.211Z,3.64
2022-11-28T19:34:00.253Z,3.78
2022-11-28T19:36:29.001Z,3.92
2022-11-28T19:38:55.456Z,3.88
2022-11-28T19:41:22.371Z,3.81
2022-11-28T19:43:49.000Z,3.73
2022-11-28T19:46:16.004Z,3.66
2022-11-28T19:48:42.699Z,3.61
2022-11-28T19:51:12.153Z,3.56
2022-11-28T19:53:41.401Z,3.59
2022-11-28T19:56:27.286Z,3.63
2022-11-28T19:58:53.716Z,3.65
2022-11-28T20:01:23.172Z,3.74
2022-11-28T20:03:50.203Z,3.64
2022-11-28T20:06:19.475Z,3.66
2022-11-28T20:08:47.741Z,3.95
2022-11-28T20:11:19.910Z,3.77
2022-11-28T20:13:48.066Z,3.71
2022-11-28T20:16:16.706Z,3.62
2022-11-28T20:18:44.301Z,3.61
2022-11-28T20:21:14.104Z,3.55
2022-11-28T20:23:42.355Z,3.61
2022-11-28T20:26:09.624Z,3.60
2022-11-28T20:28:38.157Z,3.67
2022-11-28T20:31:06.113Z,3.64
2022-11-28T20:33:32.681Z,3.64
2022-11-28T20:36:06.418Z,3.91
2022-11-28T20:38:33.058Z,4.02
2022-11-28T20:41:04.451Z,3.92
2022-11-28T20:43:31.850Z,3.81
2022-11-28T20:46:20.039Z,3.83
2022-11-28T20:48:47.282Z,3.74
2022-11-28T20:51:24.699Z,3.69
2022-11-28T20:53:52.469Z,3.72
2022-11-28T20:56:24.343Z,3.69
2022-11-28T20:58:51.934Z,3.62
2022-11-28T21:01:19.786Z,3.60
2022-11-28T21:03:46.518Z,3.66
2022-11-28T21:06:13.145Z,3.64
2022-11-28T21:08:40.297Z,3.65
2022-11-28T21:11:43.369Z,3.68
2022-11-28T21:14:05.549Z,3.65
2022-11-28T21:16:33.294Z,3.66
2022-11-28T21:19:04.843Z,3.68
2022-11-28T21:21:35.705Z,3.68
2022-11-28T21:24:10.597Z,3.74
2022-11-28T21:26:41.715Z,3.63
2022-11-28T21:29:11.732Z,3.61
2022-11-28T21:31:41.691Z,3.56
2022-11-28T21:34:14.307Z,3.74
2022-11-28T21:36:41.285Z,3.62
2022-11-28T21:39:07.678Z,3.61
2022-11-28T21:41:34.122Z,3.61
2022-11-28T21:44:00.673Z,3.65
2022-11-28T21:46:27.712Z,3.66
2022-11-28T21:48:54.238Z,3.70
2022-11-28T21:51:24.363Z,3.62
2022-11-28T21:53:51.403Z,3.66
2022-11-28T21:56:18.281Z,3.66
2022-11-28T21:58:44.783Z,3.58
2022-11-28T22:01:12.965Z,3.57
2022-11-28T22:03:40.513Z,3.58
2022-11-28T22:06:12.782Z,3.59
2022-11-28T22:08:39.177Z,3.60
2022-11-28T22:11:11.039Z,3.56
2022-11-28T22:13:38.488Z,3.55
2022-11-28T22:16:11.935Z,3.51
2022-11-28T22:18:38.645Z,3.67
2022-11-28T22:21:28.760Z,3.58
2022-11-28T22:23:53.450Z,3.66
2022-11-28T22:26:19.862Z,3.58
2022-11-28T22:28:53.097Z,3.62
2022-11-28T22:31:20.420Z,3.64
2022-11-28T22:33:49.439Z,3.56
2022-11-28T22:36:18.586Z,3.56
2022-11-28T22:38:46.351Z,3.55
2022-11-28T22:41:15.515Z,3.53
2022-11-28T22:43:42.166Z,3.52
2022-11-28T22:46:09.831Z,3.53
2022-11-28T22:48:37.726Z,3.60
2022-11-28T22:51:09.671Z,3.61
2022-11-28T22:53:36.332Z,3.60
2022-11-28T22:56:07.969Z,3.54
2022-11-28T22:58:40.961Z,3.63
2022-11-28T23:01:14.135Z,3.62
2022-11-28T23:03:41.248Z,3.60
2022-11-28T23:06:17.289Z,3.75
2022-11-28T23:08:44.713Z,3.70
2022-11-28T23:11:20.850Z,3.61
2022-11-28T23:13:49.066Z,3.61
2022-11-28T23:16:26.982Z,3.64
2022-11-28T23:18:55.463Z,3.58
2022-11-28T23:21:23.009Z,3.57
2022-11-28T23:23:49.571Z,3.48
2022-11-28T23:26:18.710Z,3.57
2022-11-28T23:28:45.571Z,3.61
2022-11-28T23:31:17.650Z,3.58
2022-11-28T23:33:44.790Z,3.53
2022-11-28T23:36:41.414Z,3.49
2022-11-28T23:39:20.577Z,3.51
2022-11-28T23:41:47.380Z,3.51
2022-11-28T23:44:15.450Z,3.53
2022-11-28T23:46:42.672Z,3.57
2022-11-28T23:49:10.010Z,3.52
2022-11-28T23:51:37.210Z,3.50
2022-11-28T23:54:04.105Z,3.44
2022-11-28T23:56:33.610Z,3.50
2022-11-28T23:59:02.188Z,3.48
